createdAt,value
2023-01-30T16:51:12.391Z,1017.14
2023-01-30T16:52:12.324Z,1017.18
2023-01-30T16:53:12.288Z,1017.20
2023-01-30T16:54:12.211Z,1017.20
2023-01-30T16:55:12.161Z,1017.21
2023-01-30T16:56:12.108Z,1017.22
2023-01-30T16:57:12.056Z,1017.23
2023-01-30T16:58:12.003Z,1017.23
2023-01-30T16:59:11.953Z,1017.25
2023-01-30T17:00:11.905Z,1017.28
2023-01-30T17:01:12.016Z,1017.30
2023-01-30T17:02:11.931Z,1017.29
2023-01-30T17:03:11.800Z,1017.34
2023-01-30T17:04:11.709Z,1017.36
2023-01-30T17:05:11.656Z,1017.40
2023-01-30T17:06:11.619Z,1017.42
2023-01-30T17:07:11.584Z,1017.45
2023-01-30T17:08:11.527Z,1017.49
2023-01-30T17:09:11.475Z,1017.52
2023-01-30T17:10:11.413Z,1017.56
2023-01-30T17:11:11.362Z,1017.64
2023-01-30T17:12:11.321Z,1017.59
2023-01-30T17:13:11.267Z,1017.65
2023-01-30T17:14:11.234Z,1017.65
2023-01-30T17:15:11.171Z,1017.70
2023-01-30T17:16:11.187Z,1017.70
2023-01-30T17:17:11.084Z,1017.70
2023-01-30T17:18:11.028Z,1017.70
2023-01-30T17:19:10.986Z,1017.78
2023-01-30T17:20:11.270Z,1017.78
2023-01-30T17:21:10.908Z,1017.80
2023-01-30T17:22:10.840Z,1017.84
2023-01-30T17:23:10.814Z,1017.84
2023-01-30T17:24:10.758Z,1017.89
2023-01-30T17:25:10.686Z,1017.90
2023-01-30T17:26:10.749Z,1017.90
2023-01-30T17:27:10.925Z,1017.91
2023-01-30T17:28:10.546Z,1017.91
2023-01-30T17:29:23.107Z,1017.99
2023-01-30T17:30:10.471Z,1017.98
2023-01-30T17:40:10.019Z,1018.20
2023-01-30T17:41:09.938Z,1018.25
2023-01-30T17:42:09.915Z,1018.23
2023-01-30T17:43:09.844Z,1018.23
2023-01-30T17:44:09.798Z,1018.23
2023-01-30T17:45:09.752Z,1018.28
2023-01-30T17:46:09.771Z,1018.29
2023-01-30T17:47:09.669Z,1018.28
2023-01-30T17:48:09.925Z,1018.28
2023-01-30T17:50:18.176Z,1018.32
2023-01-30T17:51:17.915Z,1018.38
2023-01-30T17:52:17.871Z,1018.37
2023-01-30T17:53:17.817Z,1018.34
2023-01-30T17:54:17.778Z,1018.40
2023-01-30T17:55:18.099Z,1018.42
2023-01-30T17:56:17.675Z,1018.43
2023-01-30T17:57:17.630Z,1018.45
2023-01-30T17:58:17.788Z,1018.40
2023-01-30T17:59:17.743Z,1018.48
2023-01-30T18:00:17.955Z,1018.49
2023-01-30T18:01:17.513Z,1018.49
2023-01-30T18:02:17.416Z,1018.53
2023-01-30T18:03:17.386Z,1018.48
2023-01-30T18:04:17.375Z,1018.52
2023-01-30T18:05:17.254Z,1018.54
2023-01-30T18:06:17.201Z,1018.55
2023-01-30T18:07:17.166Z,1018.54
2023-01-30T18:08:17.113Z,1018.55
2023-01-30T18:09:17.063Z,1018.63
2023-01-30T18:10:17.287Z,1018.61
2023-01-30T18:11:16.985Z,1018.66
2023-01-30T18:12:16.926Z,1018.62
2023-01-30T18:13:16.867Z,1018.67
2023-01-30T18:14:16.821Z,1018.67
2023-01-30T18:15:16.963Z,1018.70
2023-01-30T18:16:16.727Z,1018.77
2023-01-30T18:17:16.677Z,1018.73
2023-01-30T18:18:16.632Z,1018.73
2023-01-30T18:19:16.588Z,1018.70
2023-01-30T18:20:16.898Z,1018.79
2023-01-30T18:21:16.489Z,1018.75
2023-01-30T18:22:16.437Z,1018.77
2023-01-30T18:23:16.406Z,1018.75
2023-01-30T18:24:16.346Z,1018.78
2023-01-30T18:25:16.371Z,1018.77
2023-01-30T18:26:16.260Z,1018.79
2023-01-30T18:27:16.295Z,1018.80
2023-01-30T18:28:16.169Z,1018.82
2023-01-30T18:29:16.106Z,1018.81
2023-01-30T18:30:17.583Z,1018.82
2023-01-30T18:31:16.304Z,1018.77
2023-01-30T18:32:16.171Z,1018.81
2023-01-30T18:33:15.917Z,1018.82
2023-01-30T18:34:15.866Z,1018.85
2023-01-30T18:35:15.820Z,1018.80
2023-01-30T18:36:15.773Z,1018.84
2023-01-30T18:37:15.721Z,1018.84
2023-01-30T18:38:15.674Z,1018.78
2023-01-30T18:39:15.633Z,1018.77
2023-01-30T18:40:15.579Z,1018.78
2023-01-30T18:41:15.532Z,1018.70
2023-01-30T18:42:15.483Z,1018.74
2023-01-30T18:43:15.462Z,1018.74
2023-01-30T18:44:15.386Z,1018.81
2023-01-30T18:45:15.342Z,1018.76
2023-01-30T18:46:15.374Z,1018.77
2023-01-30T18:47:15.249Z,1018.75
2023-01-30T18:48:15.221Z,1018.75
2023-01-30T18:49:15.150Z,1018.78
2023-01-30T18:50:15.439Z,1018.77
2023-01-30T18:51:15.080Z,1018.72
2023-01-30T18:52:15.012Z,1018.78
2023-01-30T18:53:14.972Z,1018.88
2023-01-30T19:13:45.429Z,1018.97
2023-01-30T19:20:43.555Z,1019.00
2023-01-30T19:21:43.425Z,1019.01
2023-01-30T19:22:43.382Z,1019.04
2023-01-30T19:35:06.223Z,1019.24
2023-01-30T19:36:06.150Z,1019.24
2023-01-30T19:37:06.112Z,1019.26
2023-01-30T19:38:06.051Z,1019.27
2023-01-30T19:39:06.008Z,1019.27
2023-01-30T19:40:05.982Z,1019.31
2023-01-30T19:51:15.818Z,1019.41
2023-01-30T19:59:08.309Z,1019.55
2023-01-30T20:18:20.873Z,1019.83
2023-01-30T20:19:20.835Z,1019.87
2023-01-30T20:20:21.121Z,1019.87
2023-01-30T20:21:20.744Z,1019.86
2023-01-30T20:22:20.669Z,1019.92
2023-01-30T20:23:20.629Z,1019.90
2023-01-30T20:24:20.587Z,1019.96
2023-01-30T20:38:49.971Z,1020.24
2023-01-30T20:40:49.651Z,1020.26
2023-01-30T20:41:50.367Z,1020.19
2023-01-30T20:42:49.581Z,1020.19
2023-01-30T20:43:49.509Z,1020.20
2023-01-30T20:44:49.450Z,1020.16
2023-01-30T20:45:49.404Z,1020.19
2023-01-30T20:46:49.429Z,1020.09
2023-01-30T20:47:49.319Z,1020.13
2023-01-30T20:48:49.493Z,1020.16
2023-01-30T20:49:49.227Z,1020.17
2023-01-30T20:50:49.167Z,1020.24
2023-01-30T20:51:49.437Z,1020.24
2023-01-30T20:52:49.084Z,1020.24
2023-01-30T20:53:49.061Z,1020.15
2023-01-30T20:54:49.033Z,1020.20
2023-01-30T20:56:48.959Z,1020.17
2023-01-30T20:57:48.853Z,1020.19
2023-01-30T20:58:49.142Z,1020.23
2023-01-30T20:59:48.784Z,1020.26
2023-01-30T21:00:48.725Z,1020.25
2023-01-30T21:01:48.707Z,1020.20
2023-01-30T21:02:48.718Z,1020.19
2023-01-30T21:03:48.828Z,1020.13
2023-01-30T21:04:48.553Z,1020.13
2023-01-30T21:05:48.512Z,1020.15
